sensor_id;sensor_type;location;lat;lon;timestamp;P1;durP1;ratioP1;P2;durP2;ratioP2
5191;SDS011;2615;44.524;11.284;2023-04-01T00:00:48;12.60;;;9.73;;
5191;SDS011;2615;44.524;11.284;2023-04-01T00:03:16;14.73;;;10.77;;
5191;SDS011;2615;44.524;11.284;2023-04-01T00:05:44;14.93;;;11.37;;
5191;SDS011;2615;44.524;11.284;2023-04-01T00:08:14;12.63;;;10.53;;
5191;SDS011;2615;44.524;11.284;2023-04-01T00:10:42;16.23;;;11.40;;
5191;SDS011;2615;44.524;11.284;2023-04-01T00:13:11;12.07;;;9.77;;
5191;SDS011;2615;44.524;11.284;2023-04-01T00:15:40;16.37;;;10.70;;
5191;SDS011;2615;44.524;11.284;2023-04-01T00:18:08;13.77;;;9.77;;
5191;SDS011;2615;44.524;11.284;2023-04-01T00:20:36;13.87;;;9.97;;
5191;SDS011;2615;44.524;11.284;2023-04-01T00:23:04;16.20;;;9.00;;
5191;SDS011;2615;44.524;11.284;2023-04-01T00:25:34;26.83;;;10.17;;
5191;SDS011;2615;44.524;11.284;2023-04-01T00:28:02;16.67;;;9.93;;
5191;SDS011;2615;44.524;11.284;2023-04-01T00:30:30;19.83;;;10.03;;
5191;SDS011;2615;44.524;11.284;2023-04-01T00:32:58;13.40;;;10.50;;
5191;SDS011;2615;44.524;11.284;2023-04-01T00:35:26;14.33;;;11.10;;
5191;SDS011;2615;44.524;11.284;2023-04-01T00:37:55;13.87;;;10.03;;
5191;SDS011;2615;44.524;11.284;2023-04-01T00:40:25;14.73;;;10.90;;
5191;SDS011;2615;44.524;11.284;2023-04-01T00:42:56;16.30;;;10.37;;
5191;SDS011;2615;44.524;11.284;2023-04-01T00:45:26;16.63;;;12.07;;
5191;SDS011;2615;44.524;11.284;2023-04-01T00:47:58;14.20;;;11.53;;
5191;SDS011;2615;44.524;11.284;2023-04-01T00:50:29;19.40;;;13.17;;
5191;SDS011;2615;44.524;11.284;2023-04-01T00:52:58;21.50;;;10.80;;
5191;SDS011;2615;44.524;11.284;2023-04-01T00:55:29;17.00;;;12.20;;
5191;SDS011;2615;44.524;11.284;2023-04-01T00:58:03;20.13;;;13.07;;
5191;SDS011;2615;44.524;11.284;2023-04-01T01:00:34;18.93;;;13.00;;
5191;SDS011;2615;44.524;11.284;2023-04-01T01:03:04;16.53;;;13.80;;
5191;SDS011;2615;44.524;11.284;2023-04-01T01:05:37;24.97;;;13.23;;
5191;SDS011;2615;44.524;11.284;2023-04-01T01:08:17;20.77;;;14.73;;
5191;SDS011;2615;44.524;11.284;2023-04-01T01:10:52;21.83;;;14.37;;
5191;SDS011;2615;44.524;11.284;2023-04-01T01:13:23;16.27;;;12.50;;
5191;SDS011;2615;44.524;11.284;2023-04-01T01:15:59;26.47;;;14.77;;
5191;SDS011;2615;44.524;11.284;2023-04-01T01:18:33;20.03;;;12.77;;
5191;SDS011;2615;44.524;11.284;2023-04-01T01:21:14;18.60;;;12.70;;
5191;SDS011;2615;44.524;11.284;2023-04-01T01:24:03;19.53;;;13.77;;
5191;SDS011;2615;44.524;11.284;2023-04-01T01:26:42;21.17;;;12.77;;
5191;SDS011;2615;44.524;11.284;2023-04-01T01:29:34;18.03;;;12.10;;
5191;SDS011;2615;44.524;11.284;2023-04-01T01:35:21;16.30;;;11.07;;
5191;SDS011;2615;44.524;11.284;2023-04-01T01:37:54;18.13;;;12.60;;
5191;SDS011;2615;44.524;11.284;2023-04-01T01:40:25;15.63;;;12.67;;
5191;SDS011;2615;44.524;11.284;2023-04-01T01:42:55;16.23;;;12.47;;
5191;SDS011;2615;44.524;11.284;2023-04-01T01:45:27;22.80;;;13.97;;
5191;SDS011;2615;44.524;11.284;2023-04-01T01:47:57;26.23;;;16.30;;
5191;SDS011;2615;44.524;11.284;2023-04-01T01:50:29;20.90;;;15.60;;
5191;SDS011;2615;44.524;11.284;2023-04-01T01:53:01;21.33;;;15.53;;
5191;SDS011;2615;44.524;11.284;2023-04-01T01:55:31;23.73;;;16.20;;
5191;SDS011;2615;44.524;11.284;2023-04-01T01:58:02;26.10;;;16.53;;
5191;SDS011;2615;44.524;11.284;2023-04-01T02:00:34;34.73;;;17.13;;
5191;SDS011;2615;44.524;11.284;2023-04-01T02:03:03;24.43;;;16.13;;
5191;SDS011;2615;44.524;11.284;2023-04-01T02:05:33;22.73;;;15.93;;
5191;SDS011;2615;44.524;11.284;2023-04-01T02:08:03;20.47;;;16.87;;
5191;SDS011;2615;44.524;11.284;2023-04-01T02:10:35;25.37;;;16.60;;
5191;SDS011;2615;44.524;11.284;2023-04-01T02:13:09;25.63;;;16.93;;
5191;SDS011;2615;44.524;11.284;2023-04-01T02:15:44;25.67;;;17.47;;
5191;SDS011;2615;44.524;11.284;2023-04-01T02:18:16;21.87;;;16.80;;
5191;SDS011;2615;44.524;11.284;2023-04-01T02:20:48;25.20;;;16.07;;
5191;SDS011;2615;44.524;11.284;2023-04-01T02:23:17;20.37;;;15.07;;
5191;SDS011;2615;44.524;11.284;2023-04-01T02:25:46;28.13;;;17.40;;
5191;SDS011;2615;44.524;11.284;2023-04-01T02:28:14;25.27;;;16.53;;
5191;SDS011;2615;44.524;11.284;2023-04-01T02:30:46;25.63;;;16.67;;
5191;SDS011;2615;44.524;11.284;2023-04-01T02:33:17;23.60;;;16.50;;
5191;SDS011;2615;44.524;11.284;2023-04-01T02:35:48;19.83;;;14.27;;
5191;SDS011;2615;44.524;11.284;2023-04-01T02:38:17;26.63;;;15.40;;
5191;SDS011;2615;44.524;11.284;2023-04-01T02:40:47;19.50;;;14.30;;
5191;SDS011;2615;44.524;11.284;2023-04-01T02:43:16;28.63;;;15.83;;
5191;SDS011;2615;44.524;11.284;2023-04-01T02:45:45;24.63;;;14.70;;
5191;SDS011;2615;44.524;11.284;2023-04-01T02:48:13;17.80;;;13.53;;
5191;SDS011;2615;44.524;11.284;2023-04-01T02:50:41;21.87;;;14.90;;
5191;SDS011;2615;44.524;11.284;2023-04-01T02:53:10;17.67;;;13.73;;
5191;SDS011;2615;44.524;11.284;2023-04-01T02:55:38;19.37;;;14.50;;
5191;SDS011;2615;44.524;11.284;2023-04-01T02:58:06;20.43;;;13.83;;
5191;SDS011;2615;44.524;11.284;2023-04-01T03:00:35;18.40;;;13.00;;
5191;SDS011;2615;44.524;11.284;2023-04-01T03:03:03;18.10;;;12.93;;
5191;SDS011;2615;44.524;11.284;2023-04-01T03:05:31;20.53;;;13.60;;
5191;SDS011;2615;44.524;11.284;2023-04-01T03:08:00;19.47;;;13.77;;
5191;SDS011;2615;44.524;11.284;2023-04-01T03:10:30;21.80;;;13.80;;
5191;SDS011;2615;44.524;11.284;2023-04-01T03:12:58;19.43;;;13.40;;
5191;SDS011;2615;44.524;11.284;2023-04-01T03:15:26;19.63;;;14.17;;
5191;SDS011;2615;44.524;11.284;2023-04-01T03:17:54;16.70;;;12.83;;
5191;SDS011;2615;44.524;11.284;2023-04-01T03:20:22;18.93;;;14.10;;
5191;SDS011;2615;44.524;11.284;2023-04-01T03:22:50;20.17;;;14.77;;
5191;SDS011;2615;44.524;11.284;2023-04-01T03:25:18;21.50;;;13.33;;
5191;SDS011;2615;44.524;11.284;2023-04-01T03:27:48;18.57;;;13.37;;
5191;SDS011;2615;44.524;11.284;2023-04-01T03:30:16;18.60;;;13.47;;
5191;SDS011;2615;44.524;11.284;2023-04-01T03:32:44;17.53;;;13.70;;
5191;SDS011;2615;44.524;11.284;2023-04-01T03:35:12;20.70;;;14.13;;
5191;SDS011;2615;44.524;11.284;2023-04-01T03:37:40;22.73;;;14.73;;
5191;SDS011;2615;44.524;11.284;2023-04-01T03:40:09;21.90;;;15.77;;
5191;SDS011;2615;44.524;11.284;2023-04-01T03:42:37;21.50;;;16.40;;
5191;SDS011;2615;44.524;11.284;2023-04-01T03:45:07;23.67;;;16.17;;
5191;SDS011;2615;44.524;11.284;2023-04-01T03:47:36;20.57;;;13.70;;
5191;SDS011;2615;44.524;11.284;2023-04-01T03:50:05;23.50;;;14.63;;
5191;SDS011;2615;44.524;11.284;2023-04-01T03:52:34;20.33;;;13.90;;
5191;SDS011;2615;44.524;11.284;2023-04-01T03:55:02;18.50;;;13.70;;
5191;SDS011;2615;44.524;11.284;2023-04-01T03:57:31;20.50;;;14.63;;
5191;SDS011;2615;44.524;11.284;2023-04-01T03:59:59;27.70;;;14.70;;
5191;SDS011;2615;44.524;11.284;2023-04-01T04:02:28;24.23;;;14.37;;
5191;SDS011;2615;44.524;11.284;2023-04-01T04:04:57;21.83;;;13.70;;
5191;SDS011;2615;44.524;11.284;2023-04-01T04:07:25;24.60;;;14.37;;
5191;SDS011;2615;44.524;11.284;2023-04-01T04:09:53;21.50;;;14.00;;
5191;SDS011;2615;44.524;11.284;2023-04-01T04:12:21;17.73;;;12.17;;
5191;SDS011;2615;44.524;11.284;2023-04-01T04:14:49;19.27;;;12.20;;
5191;SDS011;2615;44.524;11.284;2023-04-01T04:17:17;21.70;;;14.47;;
5191;SDS011;2615;44.524;11.284;2023-04-01T04:19:46;22.63;;;15.60;;
5191;SDS011;2615;44.524;11.284;2023-04-01T04:22:14;20.40;;;14.70;;
5191;SDS011;2615;44.524;11.284;2023-04-01T04:24:42;21.20;;;14.37;;
5191;SDS011;2615;44.524;11.284;2023-04-01T04:27:10;26.47;;;17.23;;
5191;SDS011;2615;44.524;11.284;2023-04-01T04:29:39;19.00;;;14.87;;
5191;SDS011;2615;44.524;11.284;2023-04-01T04:32:07;22.60;;;16.10;;
5191;SDS011;2615;44.524;11.284;2023-04-01T04:34:35;17.20;;;13.00;;
5191;SDS011;2615;44.524;11.284;2023-04-01T04:37:04;18.00;;;12.53;;
5191;SDS011;2615;44.524;11.284;2023-04-01T04:39:32;18.63;;;11.20;;
5191;SDS011;2615;44.524;11.284;2023-04-01T04:42:00;17.57;;;10.70;;
5191;SDS011;2615;44.524;11.284;2023-04-01T04:44:29;16.13;;;10.60;;
5191;SDS011;2615;44.524;11.284;2023-04-01T04:46:57;15.70;;;10.10;;
5191;SDS011;2615;44.524;11.284;2023-04-01T04:49:25;15.77;;;10.00;;
5191;SDS011;2615;44.524;11.284;2023-04-01T04:51:53;17.20;;;12.07;;
5191;SDS011;2615;44.524;11.284;2023-04-01T04:54:22;27.00;;;13.60;;
5191;SDS011;2615;44.524;11.284;2023-04-01T04:56:51;19.23;;;12.87;;
5191;SDS011;2615;44.524;11.284;2023-04-01T04:59:19;14.53;;;10.67;;
5191;SDS011;2615;44.524;11.284;2023-04-01T05:01:48;19.20;;;11.33;;
5191;SDS011;2615;44.524;11.284;2023-04-01T05:04:16;17.50;;;10.70;;
5191;SDS011;2615;44.524;11.284;2023-04-01T05:06:44;16.30;;;11.60;;
5191;SDS011;2615;44.524;11.284;2023-04-01T05:09:12;15.77;;;10.23;;
5191;SDS011;2615;44.524;11.284;2023-04-01T05:11:41;15.57;;;10.40;;
5191;SDS011;2615;44.524;11.284;2023-04-01T05:14:12;15.33;;;12.10;;
5191;SDS011;2615;44.524;11.284;2023-04-01T05:16:41;16.83;;;12.13;;
5191;SDS011;2615;44.524;11.284;2023-04-01T05:19:09;17.37;;;11.43;;
5191;SDS011;2615;44.524;11.284;2023-04-01T05:21:37;12.73;;;9.97;;
5191;SDS011;2615;44.524;11.284;2023-04-01T05:24:07;19.23;;;11.37;;
5191;SDS011;2615;44.524;11.284;2023-04-01T05:26:36;16.37;;;11.43;;
5191;SDS011;2615;44.524;11.284;2023-04-01T05:29:05;13.93;;;9.60;;
5191;SDS011;2615;44.524;11.284;2023-04-01T05:31:33;15.73;;;10.47;;
5191;SDS011;2615;44.524;11.284;2023-04-01T05:34:01;15.37;;;9.53;;
5191;SDS011;2615;44.524;11.284;2023-04-01T05:36:30;10.67;;;8.17;;
5191;SDS011;2615;44.524;11.284;2023-04-01T05:38:58;15.03;;;8.93;;
5191;SDS011;2615;44.524;11.284;2023-04-01T05:41:26;13.10;;;8.00;;
5191;SDS011;2615;44.524;11.284;2023-04-01T05:43:54;12.33;;;7.00;;
5191;SDS011;2615;44.524;11.284;2023-04-01T05:46:23;8.90;;;6.20;;
5191;SDS011;2615;44.524;11.284;2023-04-01T05:48:52;10.13;;;6.93;;
5191;SDS011;2615;44.524;11.284;2023-04-01T05:51:20;9.60;;;6.90;;
5191;SDS011;2615;44.524;11.284;2023-04-01T05:53:48;12.13;;;7.50;;
5191;SDS011;2615;44.524;11.284;2023-04-01T05:56:16;10.13;;;7.07;;
5191;SDS011;2615;44.524;11.284;2023-04-01T05:58:45;11.13;;;8.67;;
5191;SDS011;2615;44.524;11.284;2023-04-01T06:01:17;10.23;;;6.90;;
5191;SDS011;2615;44.524;11.284;2023-04-01T06:03:47;9.47;;;7.60;;
5191;SDS011;2615;44.524;11.284;2023-04-01T06:06:18;13.87;;;8.60;;
5191;SDS011;2615;44.524;11.284;2023-04-01T06:08:50;10.43;;;8.60;;
5191;SDS011;2615;44.524;11.284;2023-04-01T06:11:23;10.57;;;8.47;;
5191;SDS011;2615;44.524;11.284;2023-04-01T06:14:13;14.83;;;9.30;;
5191;SDS011;2615;44.524;11.284;2023-04-01T06:16:54;13.37;;;8.57;;
5191;SDS011;2615;44.524;11.284;2023-04-01T06:19:38;17.27;;;9.70;;
5191;SDS011;2615;44.524;11.284;2023-04-01T06:25:25;17.17;;;9.40;;
5191;SDS011;2615;44.524;11.284;2023-04-01T06:28:23;18.23;;;13.00;;
5191;SDS011;2615;44.524;11.284;2023-04-01T06:31:06;25.70;;;14.13;;
5191;SDS011;2615;44.524;11.284;2023-04-01T06:33:50;23.97;;;15.27;;
5191;SDS011;2615;44.524;11.284;2023-04-01T06:36:36;28.67;;;21.37;;
5191;SDS011;2615;44.524;11.284;2023-04-01T06:42:24;30.50;;;21.63;;
5191;SDS011;2615;44.524;11.284;2023-04-01T06:45:10;30.67;;;19.50;;
5191;SDS011;2615;44.524;11.284;2023-04-01T06:47:49;30.00;;;23.60;;
5191;SDS011;2615;44.524;11.284;2023-04-01T06:50:30;29.40;;;22.07;;
5191;SDS011;2615;44.524;11.284;2023-04-01T06:53:10;31.30;;;21.03;;
5191;SDS011;2615;44.524;11.284;2023-04-01T06:55:43;31.63;;;21.13;;
5191;SDS011;2615;44.524;11.284;2023-04-01T06:58:17;27.90;;;21.10;;
5191;SDS011;2615;44.524;11.284;2023-04-01T07:00:49;25.83;;;18.50;;
5191;SDS011;2615;44.524;11.284;2023-04-01T07:03:21;25.63;;;19.77;;
5191;SDS011;2615;44.524;11.284;2023-04-01T07:05:56;26.60;;;18.03;;
5191;SDS011;2615;44.524;11.284;2023-04-01T07:08:30;27.03;;;18.73;;
5191;SDS011;2615;44.524;11.284;2023-04-01T07:11:01;27.13;;;16.93;;
5191;SDS011;2615;44.524;11.284;2023-04-01T07:13:31;27.03;;;18.57;;
5191;SDS011;2615;44.524;11.284;2023-04-01T07:16:07;26.60;;;20.67;;
5191;SDS011;2615;44.524;11.284;2023-04-01T07:18:44;26.13;;;17.80;;
5191;SDS011;2615;44.524;11.284;2023-04-01T07:21:22;28.13;;;19.80;;
5191;SDS011;2615;44.524;11.284;2023-04-01T07:23:56;31.90;;;21.67;;
5191;SDS011;2615;44.524;11.284;2023-04-01T07:26:28;30.50;;;23.07;;
5191;SDS011;2615;44.524;11.284;2023-04-01T07:28:56;23.40;;;18.37;;
5191;SDS011;2615;44.524;11.284;2023-04-01T07:31:30;23.40;;;18.23;;
5191;SDS011;2615;44.524;11.284;2023-04-01T07:34:20;23.77;;;18.07;;
5191;SDS011;2615;44.524;11.284;2023-04-01T07:36:53;23.10;;;19.20;;
5191;SDS011;2615;44.524;11.284;2023-04-01T07:39:33;27.70;;;18.03;;
5191;SDS011;2615;44.524;11.284;2023-04-01T07:42:08;20.03;;;15.37;;
5191;SDS011;2615;44.524;11.284;2023-04-01T07:44:44;22.80;;;17.77;;
5191;SDS011;2615;44.524;11.284;2023-04-01T07:47:25;24.97;;;16.93;;
5191;SDS011;2615;44.524;11.284;2023-04-01T07:50:06;22.60;;;16.30;;
5191;SDS011;2615;44.524;11.284;2023-04-01T07:52:42;24.37;;;17.00;;
5191;SDS011;2615;44.524;11.284;2023-04-01T07:55:18;18.50;;;14.90;;
5191;SDS011;2615;44.524;11.284;2023-04-01T07:57:52;20.20;;;14.67;;
5191;SDS011;2615;44.524;11.284;2023-04-01T08:00:29;27.60;;;17.10;;
5191;SDS011;2615;44.524;11.284;2023-04-01T08:03:10;21.67;;;15.83;;
5191;SDS011;2615;44.524;11.284;2023-04-01T08:05:50;27.60;;;19.23;;
5191;SDS011;2615;44.524;11.284;2023-04-01T08:08:25;20.33;;;17.83;;
5191;SDS011;2615;44.524;11.284;2023-04-01T08:11:06;20.53;;;16.27;;
5191;SDS011;2615;44.524;11.284;2023-04-01T08:13:44;23.07;;;16.17;;
5191;SDS011;2615;44.524;11.284;2023-04-01T08:16:20;24.83;;;16.60;;
5191;SDS011;2615;44.524;11.284;2023-04-01T08:18:55;25.57;;;16.53;;
5191;SDS011;2615;44.524;11.284;2023-04-01T08:21:28;23.37;;;17.20;;
5191;SDS011;2615;44.524;11.284;2023-04-01T08:24:00;20.50;;;16.13;;
5191;SDS011;2615;44.524;11.284;2023-04-01T08:26:37;25.87;;;16.77;;
5191;SDS011;2615;44.524;11.284;2023-04-01T08:29:11;24.73;;;18.23;;
5191;SDS011;2615;44.524;11.284;2023-04-01T08:31:43;20.37;;;16.37;;
5191;SDS011;2615;44.524;11.284;2023-04-01T08:34:20;20.20;;;16.50;;
5191;SDS011;2615;44.524;11.284;2023-04-01T08:36:51;22.10;;;15.33;;
5191;SDS011;2615;44.524;11.284;2023-04-01T08:39:27;20.90;;;15.77;;
5191;SDS011;2615;44.524;11.284;2023-04-01T08:45:14;23.20;;;15.13;;
5191;SDS011;2615;44.524;11.284;2023-04-01T08:47:54;20.93;;;14.60;;
5191;SDS011;2615;44.524;11.284;2023-04-01T08:50:37;22.30;;;14.70;;
5191;SDS011;2615;44.524;11.284;2023-04-01T08:53:19;20.43;;;13.80;;
5191;SDS011;2615;44.524;11.284;2023-04-01T08:56:03;15.80;;;11.93;;
5191;SDS011;2615;44.524;11.284;2023-04-01T08:58:44;16.60;;;13.03;;
5191;SDS011;2615;44.524;11.284;2023-04-01T09:04:30;17.03;;;12.77;;
5191;SDS011;2615;44.524;11.284;2023-04-01T09:07:14;18.40;;;13.43;;
5191;SDS011;2615;44.524;11.284;2023-04-01T09:10:04;18.63;;;14.70;;
5191;SDS011;2615;44.524;11.284;2023-04-01T09:13:03;17.90;;;13.40;;
5191;SDS011;2615;44.524;11.284;2023-04-01T09:16:02;18.07;;;12.67;;
5191;SDS011;2615;44.524;11.284;2023-04-01T09:18:56;21.03;;;13.40;;
5191;SDS011;2615;44.524;11.284;2023-04-01T09:21:43;19.87;;;13.07;;
5191;SDS011;2615;44.524;11.284;2023-04-01T09:24:49;18.57;;;11.67;;
5191;SDS011;2615;44.524;11.284;2023-04-01T09:27:37;16.57;;;13.27;;
5191;SDS011;2615;44.524;11.284;2023-04-01T09:33:21;18.90;;;10.67;;
5191;SDS011;2615;44.524;11.284;2023-04-01T09:36:07;18.07;;;10.53;;
5191;SDS011;2615;44.524;11.284;2023-04-01T09:38:51;11.97;;;10.70;;
5191;SDS011;2615;44.524;11.284;2023-04-01T09:41:28;13.97;;;10.97;;
5191;SDS011;2615;44.524;11.284;2023-04-01T09:44:01;21.47;;;11.47;;
5191;SDS011;2615;44.524;11.284;2023-04-01T09:46:36;11.70;;;10.10;;
5191;SDS011;2615;44.524;11.284;2023-04-01T09:49:24;14.40;;;11.67;;
5191;SDS011;2615;44.524;11.284;2023-04-01T09:52:15;13.43;;;9.60;;
5191;SDS011;2615;44.524;11.284;2023-04-01T09:54:58;13.00;;;11.37;;
5191;SDS011;2615;44.524;11.284;2023-04-01T09:57:45;18.90;;;10.57;;
5191;SDS011;2615;44.524;11.284;2023-04-01T10:00:45;12.53;;;9.90;;
5191;SDS011;2615;44.524;11.284;2023-04-01T10:06:57;13.10;;;10.60;;
5191;SDS011;2615;44.524;11.284;2023-04-01T10:22:18;13.07;;;9.63;;
5191;SDS011;2615;44.524;11.284;2023-04-01T10:25:18;11.83;;;8.70;;
5191;SDS011;2615;44.524;11.284;2023-04-01T10:28:08;11.23;;;6.57;;
5191;SDS011;2615;44.524;11.284;2023-04-01T10:31:13;10.73;;;9.00;;
5191;SDS011;2615;44.524;11.284;2023-04-01T10:37:15;11.23;;;8.90;;
5191;SDS011;2615;44.524;11.284;2023-04-01T10:40:07;11.27;;;8.87;;
5191;SDS011;2615;44.524;11.284;2023-04-01T10:45:35;9.27;;;7.50;;
5191;SDS011;2615;44.524;11.284;2023-04-01T10:48:47;10.97;;;8.30;;
5191;SDS011;2615;44.524;11.284;2023-04-01T10:51:44;8.70;;;6.23;;
5191;SDS011;2615;44.524;11.284;2023-04-01T10:54:47;12.33;;;7.50;;
5191;SDS011;2615;44.524;11.284;2023-04-01T11:00:18;11.47;;;7.57;;
5191;SDS011;2615;44.524;11.284;2023-04-01T11:09:26;9.43;;;7.57;;
5191;SDS011;2615;44.524;11.284;2023-04-01T11:18:24;7.93;;;7.13;;
5191;SDS011;2615;44.524;11.284;2023-04-01T11:27:35;11.70;;;5.80;;
5191;SDS011;2615;44.524;11.284;2023-04-01T11:30:20;7.20;;;6.50;;
5191;SDS011;2615;44.524;11.284;2023-04-01T11:32:57;8.70;;;6.40;;
5191;SDS011;2615;44.524;11.284;2023-04-01T11:35:34;8.07;;;5.53;;
5191;SDS011;2615;44.524;11.284;2023-04-01T11:38:15;7.70;;;5.97;;
5191;SDS011;2615;44.524;11.284;2023-04-01T11:40:52;7.23;;;5.37;;
5191;SDS011;2615;44.524;11.284;2023-04-01T11:43:24;7.60;;;5.70;;
5191;SDS011;2615;44.524;11.284;2023-04-01T11:46:01;7.70;;;5.93;;
5191;SDS011;2615;44.524;11.284;2023-04-01T11:48:47;8.20;;;5.10;;
5191;SDS011;2615;44.524;11.284;2023-04-01T11:51:28;6.50;;;5.73;;
5191;SDS011;2615;44.524;11.284;2023-04-01T11:54:10;6.33;;;5.10;;
5191;SDS011;2615;44.524;11.284;2023-04-01T11:56:53;8.30;;;5.57;;
5191;SDS011;2615;44.524;11.284;2023-04-01T11:59:38;7.00;;;5.10;;
5191;SDS011;2615;44.524;11.284;2023-04-01T12:02:11;5.97;;;4.17;;
5191;SDS011;2615;44.524;11.284;2023-04-01T12:07:53;5.40;;;4.73;;
5191;SDS011;2615;44.524;11.284;2023-04-01T12:10:25;6.80;;;5.10;;
5191;SDS011;2615;44.524;11.284;2023-04-01T12:13:02;5.53;;;4.03;;
5191;SDS011;2615;44.524;11.284;2023-04-01T12:15:38;4.60;;;4.10;;
5191;SDS011;2615;44.524;11.284;2023-04-01T12:18:20;4.80;;;3.33;;
5191;SDS011;2615;44.524;11.284;2023-04-01T12:20:56;6.10;;;4.00;;
5191;SDS011;2615;44.524;11.284;2023-04-01T12:23:37;4.73;;;3.30;;
5191;SDS011;2615;44.524;11.284;2023-04-01T12:26:23;3.83;;;3.00;;
5191;SDS011;2615;44.524;11.284;2023-04-01T12:29:08;7.60;;;4.47;;
5191;SDS011;2615;44.524;11.284;2023-04-01T12:31:51;6.03;;;4.07;;
5191;SDS011;2615;44.524;11.284;2023-04-01T12:37:33;7.13;;;3.70;;
5191;SDS011;2615;44.524;11.284;2023-04-01T12:40:20;5.53;;;3.87;;
5191;SDS011;2615;44.524;11.284;2023-04-01T12:43:02;6.50;;;3.70;;
5191;SDS011;2615;44.524;11.284;2023-04-01T12:45:45;4.33;;;2.93;;
5191;SDS011;2615;44.524;11.284;2023-04-01T12:48:32;4.90;;;3.30;;
5191;SDS011;2615;44.524;11.284;2023-04-01T12:51:33;3.90;;;3.33;;
5191;SDS011;2615;44.524;11.284;2023-04-01T12:57:18;5.60;;;4.00;;
5191;SDS011;2615;44.524;11.284;2023-04-01T12:59:58;5.50;;;3.80;;
5191;SDS011;2615;44.524;11.284;2023-04-01T13:02:43;5.33;;;3.30;;
5191;SDS011;2615;44.524;11.284;2023-04-01T13:05:24;6.07;;;3.57;;
5191;SDS011;2615;44.524;11.284;2023-04-01T13:08:21;4.10;;;3.13;;
5191;SDS011;2615;44.524;11.284;2023-04-01T13:11:07;4.63;;;2.60;;
5191;SDS011;2615;44.524;11.284;2023-04-01T13:13:45;4.63;;;3.83;;
5191;SDS011;2615;44.524;11.284;2023-04-01T13:16:26;4.03;;;3.17;;
5191;SDS011;2615;44.524;11.284;2023-04-01T13:18:58;3.80;;;3.07;;
5191;SDS011;2615;44.524;11.284;2023-04-01T13:21:34;5.43;;;3.40;;
5191;SDS011;2615;44.524;11.284;2023-04-01T13:24:22;4.23;;;3.20;;
5191;SDS011;2615;44.524;11.284;2023-04-01T13:26:57;4.10;;;2.70;;
5191;SDS011;2615;44.524;11.284;2023-04-01T13:29:32;4.17;;;2.77;;
5191;SDS011;2615;44.524;11.284;2023-04-01T13:32:06;4.37;;;2.30;;
5191;SDS011;2615;44.524;11.284;2023-04-01T13:34:54;5.50;;;2.10;;
5191;SDS011;2615;44.524;11.284;2023-04-01T13:37:38;2.63;;;1.63;;
5191;SDS011;2615;44.524;11.284;2023-04-01T13:40:26;4.20;;;1.87;;
5191;SDS011;2615;44.524;11.284;2023-04-01T13:43:19;3.43;;;2.00;;
5191;SDS011;2615;44.524;11.284;2023-04-01T13:49:11;4.07;;;2.40;;
5191;SDS011;2615;44.524;11.284;2023-04-01T13:51:56;3.50;;;1.23;;
5191;SDS011;2615;44.524;11.284;2023-04-01T13:54:47;2.30;;;1.03;;
5191;SDS011;2615;44.524;11.284;2023-04-01T13:57:35;3.20;;;2.03;;
5191;SDS011;2615;44.524;11.284;2023-04-01T14:00:27;5.27;;;2.33;;
5191;SDS011;2615;44.524;11.284;2023-04-01T14:03:14;5.20;;;3.20;;
5191;SDS011;2615;44.524;11.284;2023-04-01T14:06:09;3.40;;;2.20;;
5191;SDS011;2615;44.524;11.284;2023-04-01T14:08:48;25.67;;;2.73;;
5191;SDS011;2615;44.524;11.284;2023-04-01T14:11:39;3.87;;;2.07;;
5191;SDS011;2615;44.524;11.284;2023-04-01T14:14:20;7.60;;;2.57;;
5191;SDS011;2615;44.524;11.284;2023-04-01T14:17:01;3.77;;;2.03;;
5191;SDS011;2615;44.524;11.284;2023-04-01T14:22:42;4.60;;;3.30;;
5191;SDS011;2615;44.524;11.284;2023-04-01T14:25:32;4.60;;;3.50;;
5191;SDS011;2615;44.524;11.284;2023-04-01T14:28:15;4.17;;;2.43;;
5191;SDS011;2615;44.524;11.284;2023-04-01T14:30:53;4.80;;;3.00;;
5191;SDS011;2615;44.524;11.284;2023-04-01T14:33:34;5.17;;;2.40;;
5191;SDS011;2615;44.524;11.284;2023-04-01T14:39:18;6.17;;;3.07;;
5191;SDS011;2615;44.524;11.284;2023-04-01T14:41:59;4.07;;;2.70;;
5191;SDS011;2615;44.524;11.284;2023-04-01T14:47:51;5.70;;;3.23;;
5191;SDS011;2615;44.524;11.284;2023-04-01T14:50:22;4.47;;;3.20;;
5191;SDS011;2615;44.524;11.284;2023-04-01T14:52:56;4.90;;;3.00;;
5191;SDS011;2615;44.524;11.284;2023-04-01T14:55:29;5.70;;;2.27;;
5191;SDS011;2615;44.524;11.284;2023-04-01T14:58:08;5.07;;;2.83;;
5191;SDS011;2615;44.524;11.284;2023-04-01T15:00:47;7.17;;;4.07;;
5191;SDS011;2615;44.524;11.284;2023-04-01T15:03:22;4.03;;;2.90;;
5191;SDS011;2615;44.524;11.284;2023-04-01T15:05:56;3.07;;;2.27;;
5191;SDS011;2615;44.524;11.284;2023-04-01T15:08:36;6.20;;;2.90;;
5191;SDS011;2615;44.524;11.284;2023-04-01T15:11:19;5.77;;;3.30;;
5191;SDS011;2615;44.524;11.284;2023-04-01T15:14:01;7.07;;;3.27;;
5191;SDS011;2615;44.524;11.284;2023-04-01T15:16:46;6.03;;;2.50;;
5191;SDS011;2615;44.524;11.284;2023-04-01T15:19:24;3.87;;;2.43;;
5191;SDS011;2615;44.524;11.284;2023-04-01T15:25:21;5.20;;;2.40;;
5191;SDS011;2615;44.524;11.284;2023-04-01T15:28:00;3.57;;;2.17;;
5191;SDS011;2615;44.524;11.284;2023-04-01T15:30:34;4.20;;;2.10;;
5191;SDS011;2615;44.524;11.284;2023-04-01T15:36:09;2.90;;;1.80;;
5191;SDS011;2615;44.524;11.284;2023-04-01T15:38:48;8.10;;;2.30;;
5191;SDS011;2615;44.524;11.284;2023-04-01T15:41:20;6.37;;;2.10;;
5191;SDS011;2615;44.524;11.284;2023-04-01T15:43:54;3.43;;;1.73;;
5191;SDS011;2615;44.524;11.284;2023-04-01T15:46:29;3.13;;;1.70;;
5191;SDS011;2615;44.524;11.284;2023-04-01T15:49:10;9.03;;;1.90;;
5191;SDS011;2615;44.524;11.284;2023-04-01T15:51:52;2.60;;;1.47;;
5191;SDS011;2615;44.524;11.284;2023-04-01T15:54:45;5.10;;;1.57;;
5191;SDS011;2615;44.524;11.284;2023-04-01T15:57:37;4.73;;;2.33;;
5191;SDS011;2615;44.524;11.284;2023-04-01T16:00:22;8.40;;;2.80;;
5191;SDS011;2615;44.524;11.284;2023-04-01T16:08:57;7.80;;;3.20;;
5191;SDS011;2615;44.524;11.284;2023-04-01T16:11:39;6.60;;;2.93;;
5191;SDS011;2615;44.524;11.284;2023-04-01T16:14:26;7.80;;;3.37;;
5191;SDS011;2615;44.524;11.284;2023-04-01T16:17:08;11.47;;;2.97;;
5191;SDS011;2615;44.524;11.284;2023-04-01T16:19:50;12.60;;;3.27;;
5191;SDS011;2615;44.524;11.284;2023-04-01T16:22:22;16.03;;;3.33;;
5191;SDS011;2615;44.524;11.284;2023-04-01T16:24:55;14.80;;;2.80;;
5191;SDS011;2615;44.524;11.284;2023-04-01T16:27:35;11.93;;;3.00;;
5191;SDS011;2615;44.524;11.284;2023-04-01T16:30:17;4.17;;;2.13;;
5191;SDS011;2615;44.524;11.284;2023-04-01T16:32:57;5.60;;;2.37;;
5191;SDS011;2615;44.524;11.284;2023-04-01T16:35:34;4.43;;;1.77;;
5191;SDS011;2615;44.524;11.284;2023-04-01T16:38:11;8.97;;;2.30;;
5191;SDS011;2615;44.524;11.284;2023-04-01T16:40:47;14.37;;;2.30;;
5191;SDS011;2615;44.524;11.284;2023-04-01T16:43:26;3.73;;;1.30;;
5191;SDS011;2615;44.524;11.284;2023-04-01T16:46:08;4.57;;;1.33;;
5191;SDS011;2615;44.524;11.284;2023-04-01T16:48:52;7.30;;;1.47;;
5191;SDS011;2615;44.524;11.284;2023-04-01T16:51:32;6.60;;;1.93;;
5191;SDS011;2615;44.524;11.284;2023-04-01T16:54:10;6.33;;;1.30;;
5191;SDS011;2615;44.524;11.284;2023-04-01T16:56:44;5.10;;;1.90;;
5191;SDS011;2615;44.524;11.284;2023-04-01T16:59:19;5.07;;;1.73;;
5191;SDS011;2615;44.524;11.284;2023-04-01T17:01:52;3.40;;;1.63;;
5191;SDS011;2615;44.524;11.284;2023-04-01T17:04:30;6.00;;;1.40;;
5191;SDS011;2615;44.524;11.284;2023-04-01T17:07:05;3.93;;;1.40;;
5191;SDS011;2615;44.524;11.284;2023-04-01T17:09:47;5.73;;;1.60;;
5191;SDS011;2615;44.524;11.284;2023-04-01T17:12:28;7.80;;;2.07;;
5191;SDS011;2615;44.524;11.284;2023-04-01T17:15:00;15.03;;;2.50;;
5191;SDS011;2615;44.524;11.284;2023-04-01T17:17:37;5.13;;;1.90;;